createdAt,value
2022-08-25T00:00:30.258Z,20.45
2022-08-25T00:02:04.718Z,20.44
2022-08-25T00:03:39.500Z,20.47
2022-08-25T00:05:11.725Z,20.51
2022-08-25T00:06:44.046Z,20.55
2022-08-25T00:08:16.473Z,20.60
2022-08-25T00:09:48.489Z,20.61
2022-08-25T00:11:21.504Z,20.63
2022-08-25T00:12:53.445Z,20.67
2022-08-25T00:14:28.925Z,20.69
2022-08-25T00:16:00.810Z,20.71
2022-08-25T00:17:33.121Z,20.72
2022-08-25T00:19:06.003Z,20.71
2022-08-25T00:20:37.628Z,20.70
2022-08-25T00:22:14.886Z,20.67
2022-08-25T00:23:46.896Z,20.67
2022-08-25T00:25:18.785Z,20.63
2022-08-25T00:26:51.067Z,20.59
2022-08-25T00:28:23.569Z,20.57
2022-08-25T00:29:55.212Z,20.56
2022-08-25T00:31:37.741Z,20.61
2022-08-25T00:33:10.748Z,20.64
2022-08-25T00:34:42.621Z,20.62
2022-08-25T00:36:14.743Z,20.61
2022-08-25T00:37:46.340Z,20.56
2022-08-25T00:39:18.913Z,20.51
2022-08-25T00:41:06.113Z,20.47
2022-08-25T00:42:38.719Z,20.42
2022-08-25T00:44:11.196Z,20.37
2022-08-25T00:45:42.967Z,20.37
2022-08-25T00:47:14.614Z,20.35
2022-08-25T00:48:47.633Z,20.33
2022-08-25T00:50:19.406Z,20.28
2022-08-25T00:51:53.850Z,20.26
2022-08-25T00:53:25.741Z,20.25
2022-08-25T00:55:08.107Z,20.24
2022-08-25T00:56:40.052Z,20.23
2022-08-25T00:58:14.353Z,20.24
2022-08-25T00:59:46.202Z,20.24
2022-08-25T01:01:18.346Z,20.25
2022-08-25T01:02:50.814Z,20.25
2022-08-25T01:04:22.382Z,20.26
2022-08-25T01:05:54.130Z,20.29
2022-08-25T01:07:26.265Z,20.30
2022-08-25T01:08:58.084Z,20.33
2022-08-25T01:10:30.410Z,20.37
2022-08-25T01:12:02.198Z,20.41
2022-08-25T01:13:35.614Z,20.42
2022-08-25T01:15:08.226Z,20.41
2022-08-25T01:16:39.852Z,20.40
2022-08-25T01:18:12.425Z,20.42
2022-08-25T01:19:44.530Z,20.42
2022-08-25T01:21:16.636Z,20.44
2022-08-25T01:22:49.267Z,20.41
2022-08-25T01:24:36.639Z,20.37
2022-08-25T01:26:09.905Z,20.39
2022-08-25T01:27:41.672Z,20.43
2022-08-25T01:29:22.331Z,20.41
2022-08-25T01:30:54.354Z,20.41
2022-08-25T01:32:27.588Z,20.40
2022-08-25T01:33:59.318Z,20.41
2022-08-25T01:35:31.306Z,20.43
2022-08-25T01:37:03.044Z,20.44
2022-08-25T01:38:34.942Z,20.46
2022-08-25T01:40:06.919Z,20.55
2022-08-25T01:41:41.512Z,20.62
2022-08-25T01:43:13.294Z,20.65
2022-08-25T01:44:45.444Z,20.64
2022-08-25T01:46:17.167Z,20.52
2022-08-25T01:47:48.777Z,20.38
2022-08-25T01:49:20.938Z,20.26
2022-08-25T01:50:52.532Z,20.13
2022-08-25T01:52:25.941Z,20.07
2022-08-25T01:53:57.537Z,20.06
2022-08-25T01:55:29.710Z,20.05
2022-08-25T01:57:01.872Z,20.07
2022-08-25T01:58:34.573Z,20.07
2022-08-25T02:00:07.380Z,20.10
2022-08-25T02:01:39.275Z,20.12
2022-08-25T02:03:15.852Z,20.13
2022-08-25T02:04:50.782Z,20.16
2022-08-25T02:06:28.822Z,20.19
2022-08-25T02:08:02.098Z,20.22
2022-08-25T02:09:33.761Z,20.24
2022-08-25T02:11:05.504Z,20.27
2022-08-25T02:12:37.119Z,20.32
2022-08-25T02:14:09.304Z,20.31
2022-08-25T02:15:42.057Z,20.31
2022-08-25T02:17:13.586Z,20.30
2022-08-25T02:18:45.733Z,20.32
2022-08-25T02:20:17.587Z,20.37
2022-08-25T02:21:49.198Z,20.37
2022-08-25T02:23:20.918Z,20.38
2022-08-25T02:24:52.533Z,20.39
2022-08-25T02:26:24.144Z,20.40
2022-08-25T02:27:55.792Z,20.41
2022-08-25T02:29:27.405Z,20.44
2022-08-25T02:31:01.628Z,20.45
2022-08-25T02:32:34.773Z,20.45
2022-08-25T02:34:06.784Z,20.46
2022-08-25T02:35:39.417Z,20.45
2022-08-25T02:37:11.037Z,20.44
2022-08-25T02:38:42.638Z,20.46
2022-08-25T02:40:14.414Z,20.47
2022-08-25T02:41:46.294Z,20.50
2022-08-25T02:43:17.909Z,20.54
2022-08-25T02:44:49.655Z,20.58
2022-08-25T02:46:22.047Z,20.59
2022-08-25T02:47:54.213Z,20.58
2022-08-25T02:49:25.897Z,20.55
2022-08-25T02:50:59.204Z,20.58
2022-08-25T02:52:31.081Z,20.57
2022-08-25T02:54:03.192Z,20.58
2022-08-25T02:55:36.529Z,20.59
2022-08-25T02:57:08.227Z,20.57
2022-08-25T02:58:40.209Z,20.56
2022-08-25T03:00:12.848Z,20.60
2022-08-25T03:01:44.752Z,20.55
2022-08-25T03:03:16.761Z,20.55
2022-08-25T03:04:48.495Z,20.52
2022-08-25T03:06:22.420Z,20.53
2022-08-25T03:07:54.104Z,20.54
2022-08-25T03:09:27.340Z,20.58
2022-08-25T03:10:58.912Z,20.61
2022-08-25T03:12:31.265Z,20.63
2022-08-25T03:14:03.009Z,20.67
2022-08-25T03:15:38.011Z,20.71
2022-08-25T03:17:10.528Z,20.69
2022-08-25T03:18:42.394Z,20.67
2022-08-25T03:20:14.005Z,20.66
2022-08-25T03:21:46.785Z,20.67
2022-08-25T03:23:18.389Z,20.68
2022-08-25T03:24:50.335Z,20.72
2022-08-25T03:26:40.637Z,20.71
2022-08-25T03:28:12.484Z,20.68
2022-08-25T03:29:44.093Z,20.66
2022-08-25T03:31:15.826Z,20.72
2022-08-25T03:32:47.510Z,20.71
2022-08-25T03:34:19.534Z,20.69
2022-08-25T03:35:51.326Z,20.67
2022-08-25T03:37:22.890Z,20.65
2022-08-25T03:38:54.651Z,20.70
2022-08-25T03:40:26.637Z,20.67
2022-08-25T03:41:58.282Z,20.65
2022-08-25T03:43:29.957Z,20.66
2022-08-25T03:45:05.059Z,20.65
2022-08-25T03:46:44.098Z,20.65
2022-08-25T03:48:15.956Z,20.67
2022-08-25T03:49:48.074Z,20.66
2022-08-25T03:51:20.909Z,20.66
2022-08-25T03:52:54.094Z,20.65
2022-08-25T03:54:25.940Z,20.62
2022-08-25T03:55:57.846Z,20.59
2022-08-25T03:57:29.566Z,20.61
2022-08-25T03:59:01.238Z,20.59
2022-08-25T04:00:32.918Z,20.61
2022-08-25T04:02:05.300Z,20.64
2022-08-25T04:03:36.939Z,20.67
2022-08-25T04:05:09.638Z,20.69
2022-08-25T04:06:41.449Z,20.70
2022-08-25T04:08:13.247Z,20.71
2022-08-25T04:09:45.209Z,20.75
2022-08-25T04:11:20.686Z,20.78
2022-08-25T04:12:52.927Z,20.79
2022-08-25T04:14:24.604Z,20.79
2022-08-25T04:15:56.130Z,20.80
2022-08-25T04:17:28.009Z,20.78
2022-08-25T04:19:00.016Z,20.78
2022-08-25T04:20:31.877Z,20.85
2022-08-25T04:22:03.594Z,20.90
2022-08-25T04:23:35.675Z,20.93
2022-08-25T04:25:07.634Z,20.95
2022-08-25T04:26:42.345Z,20.92
2022-08-25T04:28:14.449Z,20.93
2022-08-25T04:29:47.400Z,20.93
2022-08-25T04:31:19.203Z,20.90
2022-08-25T04:32:51.258Z,20.91
2022-08-25T04:34:30.555Z,20.94
2022-08-25T04:36:03.676Z,20.97
2022-08-25T04:37:35.499Z,20.95
2022-08-25T04:39:07.202Z,20.93
2022-08-25T04:40:38.819Z,20.93
2022-08-25T04:42:10.416Z,21.00
2022-08-25T04:43:42.118Z,21.02
2022-08-25T04:45:13.832Z,21.02
2022-08-25T04:46:45.399Z,21.06
2022-08-25T04:48:17.600Z,21.12
2022-08-25T04:49:49.877Z,21.13
2022-08-25T04:51:23.856Z,21.14
2022-08-25T04:52:55.578Z,21.16
2022-08-25T04:54:28.636Z,21.22
2022-08-25T04:56:08.455Z,21.30
2022-08-25T04:57:40.203Z,21.38
2022-08-25T04:59:12.347Z,21.46
2022-08-25T05:00:44.220Z,21.54
2022-08-25T05:02:16.351Z,21.59
2022-08-25T05:03:48.276Z,21.65
2022-08-25T05:05:19.964Z,21.66
2022-08-25T05:06:51.921Z,21.67
2022-08-25T05:08:24.606Z,21.67
2022-08-25T05:09:56.344Z,21.68
2022-08-25T05:11:28.272Z,21.68
2022-08-25T05:13:00.219Z,21.72
2022-08-25T05:14:32.099Z,21.77
2022-08-25T05:16:04.094Z,21.82
2022-08-25T05:17:35.990Z,21.84
2022-08-25T05:19:08.335Z,21.87
2022-08-25T05:20:40.017Z,21.89
2022-08-25T05:22:12.736Z,21.95
2022-08-25T05:23:44.542Z,22.01
2022-08-25T05:25:16.417Z,22.07
2022-08-25T05:26:48.061Z,22.13
2022-08-25T05:28:20.016Z,22.15
2022-08-25T05:29:51.908Z,22.17
2022-08-25T05:31:24.087Z,22.16
2022-08-25T05:32:55.937Z,22.14
2022-08-25T05:34:28.106Z,22.15
2022-08-25T05:36:00.542Z,22.13
2022-08-25T05:37:32.561Z,22.14
2022-08-25T05:39:04.667Z,22.16
2022-08-25T05:40:36.514Z,22.19
2022-08-25T05:42:08.838Z,22.21
2022-08-25T05:43:41.440Z,22.25
2022-08-25T05:45:20.261Z,22.30
2022-08-25T05:46:53.246Z,22.33
2022-08-25T05:48:25.204Z,22.37
2022-08-25T05:49:56.904Z,22.42
2022-08-25T05:51:30.941Z,22.43
2022-08-25T05:53:02.718Z,22.37
2022-08-25T05:54:34.444Z,22.27
2022-08-25T05:56:06.650Z,22.19
2022-08-25T05:57:41.833Z,22.05
2022-08-25T05:59:13.748Z,22.02
2022-08-25T06:00:45.631Z,22.03
2022-08-25T06:02:36.045Z,22.05
2022-08-25T06:04:07.831Z,22.07
2022-08-25T06:05:39.767Z,22.14
2022-08-25T06:07:11.509Z,22.20
2022-08-25T06:08:44.420Z,22.26
2022-08-25T06:10:16.488Z,22.35
2022-08-25T06:11:50.632Z,22.45
2022-08-25T06:13:28.809Z,22.58
2022-08-25T06:15:00.958Z,22.68
2022-08-25T06:16:33.865Z,22.76
2022-08-25T06:18:05.869Z,22.73
2022-08-25T06:19:39.679Z,22.66
2022-08-25T06:21:13.503Z,22.61
2022-08-25T06:22:45.439Z,22.60
2022-08-25T06:24:17.614Z,22.63
2022-08-25T06:25:50.483Z,22.66
2022-08-25T06:27:23.227Z,22.71
2022-08-25T06:28:55.360Z,22.66
2022-08-25T06:30:28.864Z,22.59
2022-08-25T06:32:01.845Z,22.52
2022-08-25T06:33:33.759Z,22.42
2022-08-25T06:35:06.073Z,22.37
2022-08-25T06:36:37.901Z,22.41
2022-08-25T06:38:09.815Z,22.46
2022-08-25T06:39:41.738Z,22.50
2022-08-25T06:41:14.242Z,22.59
2022-08-25T06:42:48.719Z,22.67
2022-08-25T06:44:21.763Z,22.73
2022-08-25T06:45:54.019Z,22.84
2022-08-25T06:47:25.703Z,22.96
2022-08-25T06:48:57.888Z,23.05
2022-08-25T06:50:30.018Z,23.14
2022-08-25T06:52:01.888Z,23.20
2022-08-25T06:53:34.028Z,23.26
2022-08-25T06:55:07.364Z,23.39
2022-08-25T06:56:42.790Z,23.59
2022-08-25T06:58:14.831Z,23.70
2022-08-25T06:59:46.963Z,23.88
2022-08-25T07:01:25.988Z,24.06
2022-08-25T07:02:58.775Z,24.19
2022-08-25T07:04:31.716Z,24.30
2022-08-25T07:06:04.395Z,24.42
2022-08-25T07:07:44.154Z,24.56
2022-08-25T07:09:16.567Z,24.71
2022-08-25T07:10:48.467Z,24.85
2022-08-25T07:12:22.037Z,24.98
2022-08-25T07:13:54.036Z,25.12
2022-08-25T07:15:25.707Z,25.25
2022-08-25T07:16:58.484Z,25.39
2022-08-25T07:18:31.410Z,25.56
2022-08-25T07:20:03.969Z,25.75
2022-08-25T07:21:36.768Z,25.83
2022-08-25T07:23:09.152Z,25.91
2022-08-25T07:24:41.490Z,25.95
2022-08-25T07:28:09.888Z,26.04
2022-08-25T07:29:42.833Z,26.04
2022-08-25T07:31:15.138Z,26.06
2022-08-25T07:32:47.386Z,26.07
2022-08-25T07:34:45.395Z,26.14
2022-08-25T07:36:24.394Z,26.25
2022-08-25T07:37:59.229Z,26.39
2022-08-25T07:39:31.657Z,26.48
2022-08-25T07:41:03.969Z,26.61
2022-08-25T07:42:36.591Z,26.72
2022-08-25T07:44:10.774Z,26.83
2022-08-25T07:45:49.037Z,26.84
2022-08-25T07:47:23.075Z,26.96
2022-08-25T07:48:55.263Z,27.06
2022-08-25T07:50:27.577Z,27.15
2022-08-25T07:52:04.014Z,27.24
2022-08-25T07:53:37.073Z,27.40
2022-08-25T07:55:11.114Z,27.51
2022-08-25T07:56:44.003Z,27.65
2022-08-25T07:58:16.169Z,27.77
2022-08-25T07:59:48.520Z,27.90
2022-08-25T08:01:24.210Z,28.01
2022-08-25T08:02:56.863Z,28.15
2022-08-25T08:04:29.200Z,28.25
2022-08-25T08:06:02.068Z,28.38
2022-08-25T08:07:43.281Z,28.42
2022-08-25T08:09:16.727Z,28.46
2022-08-25T08:11:05.390Z,28.47
2022-08-25T08:12:37.994Z,28.52
2022-08-25T08:14:10.847Z,28.60
2022-08-25T08:15:43.304Z,28.69
2022-08-25T08:17:15.726Z,28.73
2022-08-25T08:18:48.373Z,28.82
2022-08-25T08:20:23.524Z,28.84
2022-08-25T08:21:55.598Z,28.74
2022-08-25T08:23:30.217Z,28.69
2022-08-25T08:25:02.740Z,28.60
2022-08-25T08:26:57.411Z,28.61
2022-08-25T08:28:28.425Z,28.60
2022-08-25T08:30:00.821Z,28.67
2022-08-25T08:31:33.003Z,28.74
2022-08-25T08:33:12.040Z,28.88
2022-08-25T08:34:45.023Z,28.98
2022-08-25T08:36:18.453Z,29.05
2022-08-25T08:37:52.533Z,29.17
2022-08-25T08:39:28.966Z,29.12
2022-08-25T08:41:23.581Z,29.13
2022-08-25T08:43:18.139Z,29.13
2022-08-25T08:45:05.735Z,29.08
2022-08-25T08:46:48.690Z,28.97
2022-08-25T08:48:38.779Z,28.87
2022-08-25T08:50:33.484Z,28.82
2022-08-25T08:52:05.737Z,28.80
2022-08-25T08:53:52.924Z,28.75
2022-08-25T08:55:29.322Z,28.68
2022-08-25T08:57:20.454Z,28.61
2022-08-25T09:15:41.113Z,27.71
2022-08-25T09:19:29.548Z,27.88
2022-08-25T09:23:34.492Z,27.94
2022-08-25T09:25:39.570Z,27.96
2022-08-25T09:27:34.318Z,28.04
2022-08-25T09:29:17.107Z,28.22
2022-08-25T09:30:59.427Z,28.47
2022-08-25T09:32:48.890Z,28.69
2022-08-25T09:34:34.861Z,28.89
2022-08-25T09:36:09.001Z,29.11
2022-08-25T09:37:41.363Z,29.28
2022-08-25T09:39:14.463Z,29.45
2022-08-25T09:40:51.947Z,29.63
2022-08-25T09:42:29.997Z,29.78
2022-08-25T09:44:07.353Z,29.91
2022-08-25T09:45:47.262Z,30.00
2022-08-25T09:49:13.019Z,30.31
2022-08-25T09:50:48.925Z,30.45
2022-08-25T09:52:25.353Z,30.51
2022-08-25T09:54:33.979Z,30.49
2022-08-25T09:56:30.631Z,30.37
2022-08-25T09:58:03.200Z,30.27
2022-08-25T09:59:53.795Z,30.25
2022-08-25T10:01:34.791Z,30.15
2022-08-25T10:03:09.887Z,30.04
2022-08-25T10:04:51.522Z,29.98
2022-08-25T10:08:38.098Z,29.72
2022-08-25T10:10:26.800Z,29.62
2022-08-25T10:12:17.934Z,29.52
2022-08-25T10:13:54.562Z,29.40
2022-08-25T10:15:36.275Z,29.38
2022-08-25T10:17:27.656Z,29.29
2022-08-25T10:19:14.724Z,29.22
2022-08-25T10:21:01.169Z,29.17
2022-08-25T10:22:38.097Z,29.19
2022-08-25T10:24:12.858Z,29.26
2022-08-25T10:25:59.120Z,29.26
2022-08-25T10:27:36.501Z,29.18
2022-08-25T10:31:54.202Z,29.22
2022-08-25T10:33:52.343Z,29.18
2022-08-25T10:35:30.764Z,29.09
2022-08-25T10:37:11.981Z,29.04
2022-08-25T10:39:01.582Z,29.01
2022-08-25T10:40:53.356Z,29.07
2022-08-25T10:42:34.351Z,29.08
2022-08-25T10:44:32.358Z,29.09
2022-08-25T10:46:18.983Z,29.18
2022-08-25T10:47:54.730Z,29.24
2022-08-25T10:54:08.827Z,29.02
2022-08-25T10:56:07.086Z,29.00
2022-08-25T10:58:41.664Z,29.01
2022-08-25T11:00:17.486Z,29.07
2022-08-25T11:02:34.303Z,29.18
2022-08-25T11:08:58.169Z,29.34
2022-08-25T11:10:40.849Z,29.44
2022-08-25T11:14:36.342Z,29.42
2022-08-25T11:16:34.400Z,29.40
2022-08-25T11:20:27.016Z,29.33
2022-08-25T11:22:13.915Z,29.34
2022-08-25T11:24:23.541Z,29.34
2022-08-25T11:28:37.942Z,29.27
2022-08-25T11:30:11.533Z,29.36
2022-08-25T11:31:49.514Z,29.40
2022-08-25T11:33:25.520Z,29.48
2022-08-25T11:34:59.400Z,29.51
2022-08-25T11:36:32.886Z,29.54
2022-08-25T11:38:08.147Z,29.52
2022-08-25T11:40:08.799Z,29.52
2022-08-25T11:41:59.213Z,29.57
2022-08-25T11:43:35.543Z,29.66
2022-08-25T11:45:10.777Z,29.68
2022-08-25T11:46:50.064Z,29.69
2022-08-25T11:48:22.263Z,29.72
2022-08-25T11:49:54.604Z,29.74
2022-08-25T11:51:46.023Z,29.83
2022-08-25T11:53:35.323Z,30.01
2022-08-25T11:55:16.787Z,30.20
2022-08-25T11:56:57.965Z,30.42
2022-08-25T11:58:33.394Z,30.64
2022-08-25T12:00:19.936Z,30.80
2022-08-25T12:01:55.644Z,30.86
2022-08-25T12:03:39.517Z,30.87
2022-08-25T12:05:17.873Z,30.84
2022-08-25T12:07:07.109Z,30.83
2022-08-25T12:09:01.309Z,30.78
2022-08-25T12:10:55.285Z,30.67
2022-08-25T12:12:30.043Z,30.55
2022-08-25T12:14:29.101Z,30.46
2022-08-25T12:16:02.562Z,30.35
2022-08-25T12:17:49.278Z,30.20
2022-08-25T12:19:49.760Z,30.14
2022-08-25T12:21:33.505Z,30.11
2022-08-25T12:23:06.220Z,30.04
2022-08-25T12:24:48.170Z,30.06
2022-08-25T12:26:40.409Z,30.08
2022-08-25T12:28:27.681Z,30.11
2022-08-25T12:30:18.658Z,30.27
2022-08-25T12:32:04.575Z,30.47
2022-08-25T12:34:12.788Z,30.67
2022-08-25T12:35:55.811Z,30.82
2022-08-25T12:37:28.358Z,30.87
2022-08-25T12:39:19.818Z,30.84
2022-08-25T12:41:12.179Z,30.89
2022-08-25T12:42:45.056Z,30.86
2022-08-25T12:44:35.633Z,30.82
2022-08-25T12:46:30.022Z,30.77
2022-08-25T12:48:28.639Z,30.64
2022-08-25T12:50:20.461Z,30.56
2022-08-25T12:51:54.343Z,30.50
2022-08-25T12:53:32.529Z,30.42
2022-08-25T12:55:13.279Z,30.40
2022-08-25T12:56:47.639Z,30.35
2022-08-25T12:58:21.913Z,30.37
2022-08-25T13:00:01.941Z,30.49
2022-08-25T13:01:56.366Z,30.59
2022-08-25T13:05:28.998Z,30.63
2022-08-25T13:07:17.964Z,30.52
2022-08-25T13:09:16.892Z,30.51
2022-08-25T13:10:53.459Z,30.55
2022-08-25T13:12:27.755Z,30.55
2022-08-25T13:14:26.936Z,30.56
2022-08-25T13:16:06.827Z,30.54
2022-08-25T13:17:41.304Z,30.45
2022-08-25T13:19:17.837Z,30.37
2022-08-25T13:20:54.838Z,30.33
2022-08-25T13:22:26.702Z,30.28
2022-08-25T13:24:05.040Z,30.23
2022-08-25T13:25:47.115Z,30.21
2022-08-25T13:27:22.837Z,30.19
2022-08-25T13:28:59.469Z,30.17
2022-08-25T13:30:32.252Z,30.12
2022-08-25T13:32:09.674Z,30.10
2022-08-25T13:33:50.393Z,30.09
2022-08-25T13:35:32.800Z,30.05
2022-08-25T13:37:31.288Z,29.98
2022-08-25T13:39:13.978Z,30.01
2022-08-25T13:40:48.213Z,30.03
2022-08-25T13:42:20.388Z,30.05
2022-08-25T13:44:02.539Z,30.14
2022-08-25T13:45:44.898Z,30.21
2022-08-25T13:47:26.717Z,30.31
2022-08-25T13:49:05.407Z,30.38
2022-08-25T13:50:40.780Z,30.44
2022-08-25T13:52:29.323Z,30.55
2022-08-25T13:54:04.240Z,30.61
2022-08-25T13:55:50.853Z,30.61
2022-08-25T13:57:30.329Z,30.62
2022-08-25T13:59:04.264Z,30.70
2022-08-25T14:00:49.253Z,30.77
2022-08-25T14:02:44.124Z,30.80
2022-08-25T14:04:35.091Z,30.85
2022-08-25T14:06:19.309Z,30.92
2022-08-25T14:08:15.758Z,31.00
2022-08-25T14:09:52.981Z,31.12
2022-08-25T14:11:31.403Z,31.10
2022-08-25T14:13:09.704Z,30.99
2022-08-25T14:14:42.450Z,30.99
2022-08-25T14:16:21.936Z,30.94
2022-08-25T14:18:07.048Z,30.96
2022-08-25T14:19:44.791Z,31.00
2022-08-25T14:21:20.263Z,31.07
2022-08-25T14:22:53.024Z,31.12
2022-08-25T14:24:27.318Z,31.15
2022-08-25T14:25:59.135Z,31.12
2022-08-25T14:27:31.006Z,31.08
2022-08-25T14:29:08.172Z,31.08
2022-08-25T14:30:58.792Z,31.10
2022-08-25T14:32:30.700Z,31.22
2022-08-25T14:34:06.444Z,31.28
2022-08-25T14:35:38.376Z,31.28
2022-08-25T14:37:12.572Z,31.21
2022-08-25T14:38:48.100Z,31.18
2022-08-25T14:40:29.870Z,31.16
2022-08-25T14:42:06.042Z,31.12
2022-08-25T14:43:40.916Z,31.05
2022-08-25T14:45:13.019Z,31.03
2022-08-25T14:46:46.212Z,31.05
2022-08-25T14:48:20.595Z,31.10
2022-08-25T14:49:56.249Z,31.12
2022-08-25T14:51:30.941Z,31.17
2022-08-25T14:53:10.492Z,31.24
2022-08-25T14:54:45.650Z,31.29
2022-08-25T14:56:29.480Z,31.30
2022-08-25T14:58:25.899Z,31.39
2022-08-25T14:59:58.944Z,31.44
2022-08-25T15:01:33.673Z,31.50
2022-08-25T15:03:11.468Z,31.57
2022-08-25T15:04:49.175Z,31.57
2022-08-25T15:06:44.145Z,31.64
2022-08-25T15:08:34.794Z,31.72
2022-08-25T15:10:13.767Z,31.77
2022-08-25T15:11:50.936Z,31.79
2022-08-25T15:13:23.181Z,31.83
2022-08-25T15:14:56.122Z,31.81
2022-08-25T15:16:35.288Z,31.81
2022-08-25T15:18:20.344Z,31.75
2022-08-25T15:20:01.833Z,31.69
2022-08-25T15:21:38.646Z,31.60
2022-08-25T15:23:16.467Z,31.56
2022-08-25T15:24:51.269Z,31.48
2022-08-25T15:26:27.716Z,31.38
2022-08-25T15:28:00.289Z,31.25
2022-08-25T15:29:35.904Z,31.14
2022-08-25T15:31:08.946Z,30.96
2022-08-25T15:32:41.348Z,30.87
2022-08-25T15:34:14.906Z,30.79
2022-08-25T15:35:51.406Z,30.65
2022-08-25T15:37:27.065Z,30.61
2022-08-25T15:39:14.108Z,30.51
2022-08-25T15:40:58.175Z,30.36
2022-08-25T15:42:42.839Z,30.19
2022-08-25T15:44:29.633Z,30.13
2022-08-25T15:50:10.699Z,29.91
2022-08-25T15:51:42.593Z,29.81
2022-08-25T15:53:18.106Z,29.74
2022-08-25T15:55:02.554Z,29.59
2022-08-25T15:56:37.672Z,29.45
2022-08-25T15:58:30.371Z,29.42
2022-08-25T16:00:31.831Z,29.41
2022-08-25T16:02:04.491Z,29.39
2022-08-25T16:05:31.814Z,29.12
2022-08-25T16:07:07.042Z,28.89
2022-08-25T16:08:59.882Z,28.80
2022-08-25T16:12:56.841Z,28.71
2022-08-25T16:14:59.323Z,28.57
2022-08-25T16:16:36.485Z,28.43
2022-08-25T16:18:29.687Z,28.41
2022-08-25T16:28:06.748Z,27.83
2022-08-25T16:30:40.161Z,27.69
2022-08-25T16:45:45.644Z,27.02
2022-08-25T16:47:22.350Z,26.92
2022-08-25T16:49:03.036Z,26.88
2022-08-25T16:51:29.462Z,26.88
2022-08-25T16:55:27.702Z,26.72
2022-08-25T16:57:03.716Z,26.66
2022-08-25T16:58:36.010Z,26.64
2022-08-25T17:00:13.510Z,26.58
2022-08-25T17:01:46.159Z,26.46
2022-08-25T17:03:18.254Z,26.29
2022-08-25T17:04:50.180Z,26.27
2022-08-25T17:06:24.815Z,26.21
2022-08-25T17:08:15.831Z,26.19
2022-08-25T17:09:48.400Z,26.16
2022-08-25T17:11:29.881Z,26.15
2022-08-25T17:13:01.685Z,26.14
2022-08-25T17:14:33.849Z,26.06
2022-08-25T17:16:06.196Z,25.99
2022-08-25T17:17:38.353Z,25.96
2022-08-25T17:19:13.015Z,25.93
2022-08-25T17:20:45.478Z,25.92
2022-08-25T17:22:17.345Z,25.86
2022-08-25T17:23:49.385Z,25.82
2022-08-25T17:25:22.958Z,25.72
2022-08-25T17:26:59.186Z,25.66
2022-08-25T17:28:31.660Z,25.64
2022-08-25T17:30:04.221Z,25.62
2022-08-25T17:31:40.392Z,25.56
2022-08-25T17:33:14.304Z,25.54
2022-08-25T17:34:46.964Z,25.52
2022-08-25T17:36:19.131Z,25.50
2022-08-25T17:37:50.999Z,25.49
2022-08-25T17:39:25.442Z,25.50
2022-08-25T17:40:58.108Z,25.47
2022-08-25T17:42:32.213Z,25.46
2022-08-25T17:44:04.549Z,25.45
2022-08-25T17:45:36.688Z,25.48
2022-08-25T17:47:08.505Z,25.49
2022-08-25T17:48:43.825Z,25.49
2022-08-25T17:50:15.890Z,25.48
2022-08-25T17:51:48.601Z,25.49
2022-08-25T17:53:21.296Z,25.53
2022-08-25T17:54:54.777Z,25.55
2022-08-25T17:56:31.924Z,25.58
2022-08-25T17:58:03.766Z,25.54
2022-08-25T17:59:37.528Z,25.50
2022-08-25T18:01:14.862Z,25.46
2022-08-25T18:02:47.532Z,25.40
2022-08-25T18:04:19.482Z,25.35
2022-08-25T18:05:55.394Z,25.31
2022-08-25T18:07:27.478Z,25.25
2022-08-25T18:09:01.658Z,25.20
2022-08-25T18:10:35.094Z,25.16
2022-08-25T18:12:07.679Z,25.15
2022-08-25T18:13:40.201Z,25.15
2022-08-25T18:15:12.631Z,25.13
2022-08-25T18:16:46.466Z,25.08
2022-08-25T18:18:18.396Z,25.01
2022-08-25T18:19:51.241Z,24.97
2022-08-25T18:21:23.836Z,24.91
2022-08-25T18:22:58.604Z,24.83
2022-08-25T18:24:31.442Z,24.77
2022-08-25T18:26:04.417Z,24.67
2022-08-25T18:27:38.554Z,24.56
2022-08-25T18:29:13.732Z,24.49
2022-08-25T18:30:46.365Z,24.42
2022-08-25T18:32:19.500Z,24.36
2022-08-25T18:33:52.252Z,24.32
2022-08-25T18:35:26.711Z,24.30
2022-08-25T18:37:18.887Z,24.22
2022-08-25T18:39:09.300Z,24.13
2022-08-25T18:40:42.177Z,24.07
2022-08-25T18:42:14.488Z,24.02
2022-08-25T18:43:46.591Z,23.96
2022-08-25T18:45:18.946Z,23.92
2022-08-25T18:46:50.861Z,23.85
2022-08-25T18:48:26.825Z,23.81
2022-08-25T18:50:02.672Z,23.78
2022-08-25T18:51:36.669Z,23.74
2022-08-25T18:53:08.902Z,23.72
2022-08-25T18:54:41.451Z,23.68
2022-08-25T18:56:13.848Z,23.62
2022-08-25T18:57:46.824Z,23.61
2022-08-25T18:59:19.429Z,23.56
2022-08-25T19:00:51.380Z,23.54
2022-08-25T19:02:23.303Z,23.50
2022-08-25T19:03:55.760Z,23.45
2022-08-25T19:05:33.053Z,23.41
2022-08-25T19:07:05.206Z,23.37
2022-08-25T19:08:42.592Z,23.34
2022-08-25T19:10:14.588Z,23.30
2022-08-25T19:11:47.756Z,23.26
2022-08-25T19:13:22.408Z,23.25
2022-08-25T19:14:55.025Z,23.25
2022-08-25T19:16:34.802Z,23.21
2022-08-25T19:18:09.984Z,23.13
2022-08-25T19:19:43.057Z,23.11
2022-08-25T19:21:16.075Z,23.14
2022-08-25T19:22:47.970Z,23.20
2022-08-25T19:24:19.989Z,23.21
2022-08-25T19:25:51.844Z,23.16
2022-08-25T19:27:25.301Z,23.09
2022-08-25T19:29:17.786Z,23.07
2022-08-25T19:30:50.938Z,23.00
2022-08-25T19:32:22.787Z,22.93
2022-08-25T19:33:55.503Z,22.85
2022-08-25T19:35:32.016Z,22.75
2022-08-25T19:37:04.559Z,22.68
2022-08-25T19:38:36.337Z,22.68
2022-08-25T19:40:08.825Z,22.69
2022-08-25T19:41:43.846Z,22.73
2022-08-25T19:43:15.799Z,22.77
2022-08-25T19:44:49.307Z,22.70
2022-08-25T19:46:21.720Z,22.65
2022-08-25T19:47:53.739Z,22.62
2022-08-25T19:49:26.782Z,22.58
2022-08-25T19:50:58.736Z,22.56
2022-08-25T19:52:31.979Z,22.53
2022-08-25T19:54:04.572Z,22.53
2022-08-25T19:55:36.542Z,22.58
2022-08-25T19:57:10.570Z,22.59
2022-08-25T19:58:43.013Z,22.58
2022-08-25T20:00:16.703Z,22.54
2022-08-25T20:01:49.810Z,22.53
2022-08-25T20:03:21.778Z,22.55
2022-08-25T20:04:55.909Z,22.54
2022-08-25T20:06:28.179Z,22.47
2022-08-25T20:08:00.146Z,22.40
2022-08-25T20:09:39.584Z,22.35
2022-08-25T20:11:16.186Z,22.31
2022-08-25T20:12:48.718Z,22.27
2022-08-25T20:14:20.512Z,22.26
2022-08-25T20:15:53.299Z,22.26
2022-08-25T20:17:31.705Z,22.31
2022-08-25T20:19:04.139Z,22.36
2022-08-25T20:20:36.379Z,22.38
2022-08-25T20:22:08.324Z,22.39
2022-08-25T20:24:01.726Z,22.40
2022-08-25T20:25:36.898Z,22.44
2022-08-25T20:27:09.183Z,22.49
2022-08-25T20:28:42.267Z,22.52
2022-08-25T20:30:19.102Z,22.52
2022-08-25T20:31:50.880Z,22.52
2022-08-25T20:33:23.496Z,22.52
2022-08-25T20:34:55.899Z,22.53
2022-08-25T20:36:27.811Z,22.55
2022-08-25T20:38:00.166Z,22.54
2022-08-25T20:39:32.069Z,22.54
2022-08-25T20:41:04.389Z,22.48
2022-08-25T20:42:37.173Z,22.47
2022-08-25T20:44:08.925Z,22.49
2022-08-25T20:45:40.521Z,22.45
2022-08-25T20:47:12.203Z,22.42
2022-08-25T20:48:44.595Z,22.38
2022-08-25T20:50:16.911Z,22.35
2022-08-25T20:51:51.485Z,22.33
2022-08-25T20:53:25.198Z,22.31
2022-08-25T20:54:56.992Z,22.29
2022-08-25T20:56:30.632Z,22.27
2022-08-25T20:58:02.190Z,22.26
2022-08-25T20:59:33.761Z,22.22
2022-08-25T21:01:18.598Z,22.17
2022-08-25T21:02:55.115Z,22.15
2022-08-25T21:04:28.461Z,22.09
2022-08-25T21:06:00.620Z,22.00
2022-08-25T21:07:35.873Z,21.95
2022-08-25T21:09:14.265Z,21.87
2022-08-25T21:10:48.148Z,21.79
2022-08-25T21:12:20.057Z,21.78
2022-08-25T21:13:52.161Z,21.78
2022-08-25T21:15:24.303Z,21.84
2022-08-25T21:16:56.310Z,21.87
2022-08-25T21:18:31.568Z,21.86
2022-08-25T21:20:04.794Z,21.88
2022-08-25T21:21:38.072Z,21.90
2022-08-25T21:23:09.727Z,21.89
2022-08-25T21:24:41.542Z,21.87
2022-08-25T21:26:19.349Z,21.88
2022-08-25T21:27:51.282Z,21.88
2022-08-25T21:29:23.707Z,21.90
2022-08-25T21:30:56.825Z,21.89
2022-08-25T21:32:28.726Z,21.88
2022-08-25T21:34:00.377Z,21.84
2022-08-25T21:35:32.500Z,21.78
2022-08-25T21:37:05.854Z,21.76
2022-08-25T21:38:38.894Z,21.77
2022-08-25T21:40:12.093Z,21.79
2022-08-25T21:41:45.772Z,21.80
2022-08-25T21:43:18.610Z,21.79
2022-08-25T21:44:51.163Z,21.77
2022-08-25T21:46:24.387Z,21.74
2022-08-25T21:47:57.191Z,21.69
2022-08-25T21:49:29.483Z,21.70
2022-08-25T21:51:10.145Z,21.67
2022-08-25T21:52:42.300Z,21.65
2022-08-25T21:54:15.223Z,21.66
2022-08-25T21:55:47.413Z,21.68
2022-08-25T21:57:23.766Z,21.65
2022-08-25T21:58:55.562Z,21.61
2022-08-25T22:00:27.592Z,21.58